createdAt,value
2018-12-04T00:02:26.167Z,72.50
2018-12-04T00:04:55.889Z,71.90
2018-12-04T00:07:24.365Z,71.90
2018-12-04T00:09:52.782Z,72.10
2018-12-04T00:12:22.213Z,72.20
2018-12-04T00:14:50.533Z,71.80
2018-12-04T00:17:19.404Z,71.60
2018-12-04T00:19:48.445Z,71.20
2018-12-04T00:22:16.942Z,71.60
2018-12-04T00:24:46.240Z,71.40
2018-12-04T00:27:14.678Z,70.50
2018-12-04T00:29:43.090Z,70.80
2018-12-04T00:32:11.504Z,70.70
2018-12-04T00:34:39.908Z,71.00
2018-12-04T00:37:09.086Z,70.70
2018-12-04T00:39:37.483Z,70.70
2018-12-04T00:42:12.745Z,70.60
2018-12-04T00:44:41.093Z,70.10
2018-12-04T00:47:09.373Z,70.10
2018-12-04T00:49:37.716Z,70.20
2018-12-04T00:52:06.159Z,70.00
2018-12-04T00:54:35.177Z,70.00
2018-12-04T00:57:03.561Z,70.60
2018-12-04T00:59:32.008Z,70.10
2018-12-04T01:02:00.364Z,70.00
2018-12-04T01:04:28.663Z,70.60
2018-12-04T01:06:57.066Z,70.10
2018-12-04T01:09:26.037Z,70.30
2018-12-04T01:11:54.355Z,70.30
2018-12-04T01:14:22.776Z,69.90
2018-12-04T01:16:51.219Z,70.00
2018-12-04T01:19:19.640Z,70.10
2018-12-04T01:21:48.193Z,70.10
2018-12-04T01:24:16.951Z,70.00
2018-12-04T01:26:45.577Z,70.10
2018-12-04T01:29:14.594Z,70.90
2018-12-04T01:31:43.692Z,70.10
2018-12-04T01:34:12.007Z,70.70
2018-12-04T01:36:40.306Z,70.50
2018-12-04T01:39:08.644Z,70.30
2018-12-04T01:41:36.992Z,70.40
2018-12-04T01:44:05.397Z,70.20
2018-12-04T01:46:34.181Z,70.10
2018-12-04T01:49:02.523Z,70.30
2018-12-04T01:51:30.861Z,70.20
2018-12-04T01:53:59.281Z,71.00
2018-12-04T01:56:29.457Z,70.10
2018-12-04T01:58:57.817Z,69.90
2018-12-04T02:01:26.305Z,70.10
2018-12-04T02:03:54.617Z,70.00
2018-12-04T02:06:23.034Z,69.80
2018-12-04T02:08:51.860Z,70.00
2018-12-04T02:11:20.239Z,70.60
2018-12-04T02:13:48.889Z,70.60
2018-12-04T02:16:17.186Z,70.50
2018-12-04T02:18:45.573Z,70.10
2018-12-04T02:21:13.971Z,70.40
2018-12-04T02:23:42.556Z,70.90
2018-12-04T02:26:11.445Z,71.10
2018-12-04T02:28:42.238Z,70.70
2018-12-04T02:31:11.537Z,70.70
2018-12-04T02:33:39.947Z,71.50
2018-12-04T02:36:08.542Z,72.00
2018-12-04T02:38:36.924Z,71.70
2018-12-04T02:41:05.930Z,71.50
2018-12-04T02:43:34.343Z,71.70
2018-12-04T02:46:02.801Z,71.00
2018-12-04T02:48:31.590Z,70.40
2018-12-04T02:50:59.932Z,70.20
2018-12-04T02:53:28.712Z,69.70
2018-12-04T02:55:57.109Z,69.50
2018-12-04T02:58:25.813Z,69.50
2018-12-04T03:00:54.528Z,69.30
2018-12-04T03:03:23.470Z,69.20
2018-12-04T03:05:52.447Z,68.90
2018-12-04T03:08:20.862Z,69.20
2018-12-04T03:10:49.166Z,68.80
2018-12-04T03:13:18.070Z,68.80
2018-12-04T03:15:46.685Z,68.50
2018-12-04T03:18:15.701Z,69.00
2018-12-04T03:20:44.389Z,68.30
2018-12-04T03:23:13.528Z,68.20
2018-12-04T03:25:41.837Z,68.30
2018-12-04T03:28:10.182Z,67.90
2018-12-04T03:30:38.509Z,68.30
2018-12-04T03:33:07.584Z,68.20
2018-12-04T03:35:35.977Z,68.60
2018-12-04T03:38:04.562Z,68.50
2018-12-04T03:40:32.785Z,69.50
2018-12-04T03:43:01.932Z,69.00
2018-12-04T03:45:30.476Z,69.30
2018-12-04T03:47:58.831Z,69.10
2018-12-04T03:50:27.645Z,69.20
2018-12-04T03:52:57.632Z,69.90
2018-12-04T03:55:26.752Z,70.20
2018-12-04T03:57:55.098Z,70.50
2018-12-04T04:00:23.429Z,70.10
2018-12-04T04:02:51.833Z,70.80
2018-12-04T04:05:20.175Z,70.30
2018-12-04T04:07:49.340Z,70.50
2018-12-04T04:10:17.703Z,70.70
2018-12-04T04:12:46.070Z,71.30
2018-12-04T04:15:14.899Z,71.00
2018-12-04T04:17:43.139Z,71.10
2018-12-04T04:20:11.430Z,71.20
2018-12-04T04:22:39.858Z,72.60
2018-12-04T04:25:08.363Z,72.80
2018-12-04T04:27:36.761Z,72.90
2018-12-04T04:30:05.683Z,73.20
2018-12-04T04:32:35.884Z,73.20
2018-12-04T04:35:04.715Z,73.10
2018-12-04T04:37:33.055Z,73.50
2018-12-04T04:40:01.491Z,73.80
2018-12-04T04:42:29.768Z,73.90
2018-12-04T04:44:58.126Z,74.10
2018-12-04T04:47:26.455Z,73.90
2018-12-04T04:49:55.051Z,73.80
2018-12-04T04:52:23.969Z,74.00
2018-12-04T04:54:52.383Z,74.20
2018-12-04T04:57:20.797Z,74.40
2018-12-04T04:59:50.009Z,74.50
2018-12-04T05:02:18.535Z,74.90
2018-12-04T05:04:47.203Z,74.90
2018-12-04T05:07:16.010Z,74.90
2018-12-04T05:09:44.383Z,75.10
2018-12-04T05:12:12.663Z,75.50
2018-12-04T05:14:41.391Z,75.80
2018-12-04T05:17:09.651Z,75.50
2018-12-04T05:19:38.089Z,75.60
2018-12-04T05:22:06.594Z,75.60
2018-12-04T05:24:35.587Z,75.80
2018-12-04T05:27:04.413Z,76.00
2018-12-04T05:29:32.689Z,75.50
2018-12-04T05:32:01.427Z,75.30
2018-12-04T05:34:30.750Z,75.30
2018-12-04T05:36:59.492Z,75.20
2018-12-04T05:39:28.370Z,75.20
2018-12-04T05:41:57.672Z,74.90
2018-12-04T05:44:26.296Z,74.70
2018-12-04T05:46:55.637Z,74.30
2018-12-04T05:49:24.240Z,74.20
2018-12-04T05:51:53.406Z,74.20
2018-12-04T05:54:22.355Z,74.20
2018-12-04T05:56:50.907Z,73.80
2018-12-04T05:59:20.031Z,73.80
2018-12-04T06:01:48.720Z,73.60
2018-12-04T06:04:17.428Z,73.50
2018-12-04T06:06:46.248Z,73.20
2018-12-04T06:09:15.093Z,73.20
2018-12-04T06:11:43.496Z,73.30
2018-12-04T06:14:12.269Z,73.00
2018-12-04T06:16:41.578Z,72.70
2018-12-04T06:19:09.957Z,72.50
2018-12-04T06:21:38.719Z,72.30
2018-12-04T06:24:07.343Z,72.20
2018-12-04T06:26:35.702Z,72.10
2018-12-04T06:29:04.653Z,72.20
2018-12-04T06:31:33.027Z,72.50
2018-12-04T06:34:01.476Z,72.50
2018-12-04T06:36:30.178Z,72.50
2018-12-04T06:38:58.551Z,72.20
2018-12-04T06:41:26.817Z,72.60
2018-12-04T06:43:55.217Z,72.70
2018-12-04T06:46:23.535Z,72.90
2018-12-04T06:48:51.882Z,72.80
2018-12-04T06:51:20.565Z,73.00
2018-12-04T06:53:49.244Z,73.20
2018-12-04T06:56:17.671Z,73.70
2018-12-04T06:58:46.384Z,73.10
2018-12-04T07:01:15.033Z,73.30
2018-12-04T07:03:43.380Z,73.70
2018-12-04T07:06:11.697Z,73.90
2018-12-04T07:08:40.186Z,74.00
2018-12-04T07:11:08.779Z,74.10
2018-12-04T07:13:38.132Z,74.40
2018-12-04T07:16:06.585Z,74.80
2018-12-04T07:18:35.509Z,74.90
2018-12-04T07:21:03.994Z,75.20
2018-12-04T07:23:33.523Z,76.10
2018-12-04T07:26:01.924Z,75.00
2018-12-04T07:28:30.338Z,75.00
2018-12-04T07:30:58.844Z,74.80
2018-12-04T07:33:27.270Z,73.80
2018-12-04T07:35:55.837Z,73.50
2018-12-04T07:38:24.324Z,73.40
2018-12-04T07:40:52.776Z,73.20
2018-12-04T07:43:21.112Z,73.40
2018-12-04T07:45:49.478Z,73.10
2018-12-04T07:48:17.756Z,72.90
2018-12-04T07:50:46.099Z,71.80
2018-12-04T07:53:14.499Z,71.60
2018-12-04T07:55:45.435Z,71.40
2018-12-04T07:58:15.733Z,71.00
2018-12-04T08:00:44.277Z,71.40
2018-12-04T08:03:12.647Z,71.00
2018-12-04T08:05:41.085Z,70.90
2018-12-04T08:08:09.397Z,70.40
2018-12-04T08:10:37.786Z,70.30
2018-12-04T08:13:06.137Z,70.30
2018-12-04T08:15:34.586Z,70.40
2018-12-04T08:18:02.977Z,70.00
2018-12-04T08:20:31.378Z,70.30
2018-12-04T08:22:59.725Z,70.20
2018-12-04T08:25:28.218Z,70.40
2018-12-04T08:27:56.478Z,70.10
2018-12-04T08:30:24.787Z,70.20
2018-12-04T08:32:53.177Z,70.00
2018-12-04T08:35:21.482Z,70.10
2018-12-04T08:37:49.754Z,70.50
2018-12-04T08:40:20.209Z,70.20
2018-12-04T08:42:48.899Z,70.40
2018-12-04T08:45:17.246Z,70.20
2018-12-04T08:47:46.046Z,70.30
2018-12-04T08:50:14.399Z,69.90
2018-12-04T08:52:42.718Z,69.90
2018-12-04T08:55:11.143Z,70.60
2018-12-04T08:57:39.739Z,70.90
2018-12-04T09:00:09.443Z,71.50
2018-12-04T09:02:37.925Z,72.50
2018-12-04T09:05:08.172Z,73.10
2018-12-04T09:07:38.146Z,73.10
2018-12-04T09:10:07.144Z,72.80
2018-12-04T09:12:37.613Z,73.20
2018-12-04T09:15:06.632Z,72.80
2018-12-04T09:17:34.962Z,72.90
2018-12-04T09:20:03.377Z,73.00
2018-12-04T09:22:32.377Z,73.30
2018-12-04T09:33:40.255Z,74.50
2018-12-04T09:38:41.874Z,72.20
2018-12-04T09:41:10.231Z,73.20
2018-12-04T09:43:38.925Z,72.00
2018-12-04T09:46:08.372Z,72.10
2018-12-04T09:51:34.512Z,73.40
2018-12-04T09:54:02.965Z,76.40
2018-12-04T09:56:31.544Z,75.90
2018-12-04T09:59:01.234Z,76.70
2018-12-04T10:01:29.613Z,77.70
2018-12-04T10:03:59.095Z,79.60
2018-12-04T10:06:27.744Z,80.10
2018-12-04T10:08:56.213Z,82.30
2018-12-04T10:11:24.796Z,82.60
2018-12-04T10:13:53.100Z,83.80
2018-12-04T10:16:21.469Z,82.70
2018-12-04T10:18:49.820Z,82.50
2018-12-04T10:21:18.151Z,81.50
2018-12-04T10:23:46.581Z,80.80
2018-12-04T10:26:15.142Z,80.40
2018-12-04T10:28:43.729Z,80.50
2018-12-04T10:31:12.145Z,79.80
2018-12-04T10:39:21.998Z,76.90
2018-12-04T10:41:50.361Z,75.70
2018-12-04T10:44:18.785Z,76.30
2018-12-04T10:46:47.165Z,75.70
2018-12-04T10:49:15.568Z,74.80
2018-12-04T10:51:44.048Z,74.30
2018-12-04T10:54:12.596Z,73.90
2018-12-04T10:56:41.888Z,74.50
2018-12-04T10:59:10.729Z,73.80
2018-12-04T11:01:44.580Z,73.60
2018-12-04T11:04:13.265Z,72.60
2018-12-04T11:06:44.018Z,71.30
2018-12-04T11:09:15.687Z,71.10
2018-12-04T11:11:50.573Z,71.90
2018-12-04T11:14:20.054Z,71.70
2018-12-04T11:16:49.231Z,71.20
2018-12-04T11:19:24.428Z,70.00
2018-12-04T11:21:54.397Z,70.50
2018-12-04T11:24:25.514Z,67.90
2018-12-04T11:26:55.662Z,68.50
2018-12-04T11:29:25.486Z,67.60
2018-12-04T11:31:55.480Z,67.20
2018-12-04T11:34:25.149Z,67.10
2018-12-04T11:36:56.963Z,67.00
2018-12-04T11:39:28.793Z,67.10
2018-12-04T11:42:02.779Z,66.00
2018-12-04T11:44:37.683Z,65.40
2018-12-04T11:47:11.988Z,66.80
2018-12-04T11:49:44.736Z,66.80
2018-12-04T11:52:17.755Z,66.40
2018-12-04T11:54:52.431Z,68.30
2018-12-04T11:57:24.368Z,68.10
2018-12-04T11:59:55.690Z,67.90
2018-12-04T12:02:25.028Z,68.10
2018-12-04T12:04:54.832Z,68.20
2018-12-04T12:07:23.976Z,68.90
2018-12-04T12:09:53.987Z,68.60
2018-12-04T12:12:22.639Z,67.50
2018-12-04T12:14:52.436Z,67.00
2018-12-04T12:17:21.532Z,66.50
2018-12-04T12:19:50.752Z,66.40
2018-12-04T12:22:19.496Z,65.00
2018-12-04T12:24:48.927Z,67.10
2018-12-04T12:27:20.835Z,65.30
2018-12-04T12:29:49.505Z,64.90
2018-12-04T12:32:18.472Z,65.80
2018-12-04T12:34:58.944Z,66.40
2018-12-04T12:37:33.372Z,66.30
2018-12-04T12:40:02.185Z,66.20
2018-12-04T12:42:30.959Z,65.80
2018-12-04T12:45:00.248Z,65.30
2018-12-04T12:47:29.680Z,65.20
2018-12-04T12:49:59.273Z,64.80
2018-12-04T12:52:30.118Z,64.90
2018-12-04T12:54:58.896Z,64.90
2018-12-04T12:57:29.551Z,64.30
2018-12-04T12:59:58.083Z,64.80
2018-12-04T13:02:26.519Z,63.80
2018-12-04T13:04:56.842Z,64.50
2018-12-04T13:07:25.374Z,63.50
2018-12-04T13:09:54.291Z,62.40
2018-12-04T13:12:23.796Z,62.80
2018-12-04T13:14:52.750Z,61.80
2018-12-04T13:17:21.618Z,62.30
2018-12-04T13:19:50.237Z,63.40
2018-12-04T13:22:19.028Z,63.30
2018-12-04T13:24:48.375Z,63.10
2018-12-04T13:27:17.068Z,63.10
2018-12-04T13:29:45.738Z,63.40
2018-12-04T13:32:14.366Z,63.20
2018-12-04T13:34:43.159Z,62.50
2018-12-04T13:37:12.613Z,63.10
2018-12-04T13:39:41.486Z,63.40
2018-12-04T13:42:10.365Z,63.60
2018-12-04T14:04:07.711Z,64.90
2018-12-04T14:06:36.428Z,64.70
2018-12-04T14:09:06.850Z,65.30
2018-12-04T14:11:36.183Z,65.10
2018-12-04T14:14:05.304Z,65.40
2018-12-04T14:16:35.664Z,65.10
2018-12-04T14:19:05.940Z,65.00
2018-12-04T14:21:34.537Z,68.10
2018-12-04T14:24:03.756Z,69.60
2018-12-04T14:26:32.903Z,72.20
2018-12-04T14:29:02.419Z,73.90
2018-12-04T14:31:31.804Z,75.50
2018-12-04T14:34:01.237Z,76.40
2018-12-04T14:36:30.997Z,76.30
2018-12-04T14:39:00.817Z,76.50
2018-12-04T14:41:30.314Z,77.90
2018-12-04T14:43:59.059Z,77.80
2018-12-04T14:46:27.808Z,78.50
2018-12-04T14:56:28.288Z,78.40
2018-12-04T14:58:56.813Z,77.90
2018-12-04T15:01:25.578Z,78.00
2018-12-04T15:03:54.422Z,77.80
2018-12-04T15:06:22.940Z,77.60
2018-12-04T15:08:51.925Z,78.10
2018-12-04T15:11:20.712Z,78.80
2018-12-04T15:13:49.062Z,79.50
2018-12-04T15:16:17.851Z,80.40
2018-12-04T15:18:46.626Z,80.70
2018-12-04T15:21:15.211Z,81.60
2018-12-04T15:23:45.107Z,81.90
2018-12-04T15:26:13.782Z,81.60
2018-12-04T15:28:42.973Z,82.20
2018-12-04T15:31:12.266Z,81.70
2018-12-04T15:33:40.794Z,82.40
2018-12-04T15:36:09.582Z,82.80
2018-12-04T15:38:37.982Z,82.70
2018-12-04T15:41:06.465Z,82.50
2018-12-04T15:43:35.229Z,83.40
2018-12-04T15:46:04.305Z,83.70
2018-12-04T15:48:33.745Z,82.70
2018-12-04T15:51:02.630Z,83.20
2018-12-04T15:53:31.610Z,84.00
2018-12-04T15:56:00.585Z,83.90
2018-12-04T15:58:29.085Z,83.40
2018-12-04T16:00:59.822Z,83.30
2018-12-04T16:03:29.158Z,83.50
2018-12-04T16:05:58.645Z,83.30
2018-12-04T16:08:27.351Z,83.10
2018-12-04T16:10:55.950Z,83.40
2018-12-04T16:13:24.667Z,83.30
2018-12-04T16:15:54.549Z,83.40
2018-12-04T16:18:23.179Z,83.40
2018-12-04T16:20:51.748Z,83.50
2018-12-04T16:23:20.672Z,83.30
2018-12-04T16:25:49.193Z,82.90
2018-12-04T16:28:18.147Z,82.50
2018-12-04T16:30:47.296Z,82.50
2018-12-04T16:33:16.181Z,82.20
2018-12-04T16:35:44.994Z,82.20
2018-12-04T16:38:15.669Z,82.40
2018-12-04T16:40:47.889Z,82.60
2018-12-04T16:43:17.991Z,83.00
2018-12-04T16:45:54.942Z,82.80
2018-12-04T16:48:25.014Z,83.30
2018-12-04T16:50:58.310Z,83.20
2018-12-04T16:53:26.930Z,82.80
2018-12-04T16:55:59.676Z,82.70
2018-12-04T16:58:28.525Z,82.60
2018-12-04T17:00:57.704Z,82.30
2018-12-04T17:03:27.810Z,83.10
2018-12-04T17:06:01.105Z,83.50
2018-12-04T17:08:29.843Z,84.00
2018-12-04T17:11:02.742Z,85.80
2018-12-04T17:13:31.604Z,86.00
2018-12-04T17:16:06.898Z,85.90
2018-12-04T17:18:37.741Z,85.30
2018-12-04T17:21:06.548Z,85.50
2018-12-04T17:23:35.483Z,85.70
2018-12-04T17:26:04.369Z,86.10
2018-12-04T17:28:34.390Z,86.50
2018-12-04T17:31:04.304Z,86.00
2018-12-04T17:33:33.295Z,85.80
2018-12-04T17:36:05.065Z,85.20
2018-12-04T17:38:35.304Z,82.90
2018-12-04T17:41:05.639Z,82.20
2018-12-04T17:43:34.726Z,82.40
2018-12-04T17:46:05.378Z,82.20
2018-12-04T17:48:35.224Z,81.70
2018-12-04T17:51:05.006Z,80.70
2018-12-04T17:53:33.642Z,81.40
2018-12-04T17:56:02.522Z,80.90
2018-12-04T17:58:31.386Z,81.20
2018-12-04T18:01:00.954Z,82.20
2018-12-04T18:03:32.521Z,82.20
2018-12-04T18:06:01.756Z,82.40
2018-12-04T18:08:31.295Z,80.70
2018-12-04T18:11:04.848Z,79.70
2018-12-04T18:13:36.235Z,79.70
2018-12-04T18:16:07.283Z,79.20
2018-12-04T18:18:35.687Z,78.50
2018-12-04T18:21:04.270Z,78.50
2018-12-04T18:23:33.436Z,78.10
2018-12-04T18:26:02.643Z,79.00
2018-12-04T18:28:31.977Z,78.90
2018-12-04T18:31:02.197Z,79.10
2018-12-04T18:33:32.543Z,78.80
2018-12-04T18:38:51.347Z,78.90
2018-12-04T18:41:20.357Z,77.90
2018-12-04T18:43:50.030Z,78.40
2018-12-04T18:46:19.977Z,77.60
2018-12-04T18:48:49.080Z,77.80
2018-12-04T18:51:18.276Z,78.30
2018-12-04T18:53:46.818Z,78.20
2018-12-04T18:56:15.996Z,77.90
2018-12-04T18:58:44.657Z,77.20
2018-12-04T19:01:17.149Z,77.80
2018-12-04T19:03:45.610Z,77.00
2018-12-04T19:06:14.025Z,76.40
2018-12-04T19:08:50.159Z,76.50
2018-12-04T19:11:18.565Z,76.00
2018-12-04T19:13:47.003Z,76.30
2018-12-04T19:16:16.229Z,75.80
2018-12-04T19:18:44.795Z,75.20
2018-12-04T19:21:13.113Z,75.50
2018-12-04T19:23:42.093Z,74.70
2018-12-04T19:26:10.558Z,74.70
2018-12-04T19:28:39.013Z,74.40
2018-12-04T19:31:08.173Z,74.70
2018-12-04T19:33:36.905Z,74.60
2018-12-04T19:36:05.180Z,73.70
2018-12-04T19:38:34.286Z,74.50
2018-12-04T19:41:02.647Z,75.10
2018-12-04T19:43:31.066Z,74.80
2018-12-04T19:45:59.368Z,75.00
2018-12-04T19:48:27.787Z,75.30
2018-12-04T19:50:56.726Z,76.00
2018-12-04T19:53:25.052Z,76.50
2018-12-04T19:55:53.313Z,77.00
2018-12-04T19:58:21.774Z,76.60
2018-12-04T20:00:51.115Z,77.10
2018-12-04T20:03:19.794Z,76.40
2018-12-04T20:05:48.568Z,75.60
2018-12-04T20:08:17.334Z,75.70
2018-12-04T20:10:46.121Z,74.80
2018-12-04T20:13:14.610Z,74.70
2018-12-04T20:15:45.228Z,75.30
2018-12-04T20:18:17.485Z,73.20
2018-12-04T20:25:03.460Z,73.50
2018-12-04T20:27:35.643Z,73.50
2018-12-04T20:30:06.059Z,73.40
2018-12-04T20:32:34.830Z,73.70
2018-12-04T20:35:04.921Z,73.80
2018-12-04T20:37:35.543Z,73.70
2018-12-04T20:40:05.871Z,73.80
2018-12-04T20:42:36.051Z,74.70
2018-12-04T20:45:04.810Z,74.60
2018-12-04T20:47:34.804Z,74.50
2018-12-04T20:50:04.260Z,74.20
2018-12-04T20:52:36.038Z,74.60
2018-12-04T20:55:08.821Z,74.00
2018-12-04T20:57:36.144Z,74.30
2018-12-04T21:00:06.884Z,74.30
2018-12-04T21:02:35.349Z,74.30
2018-12-04T21:05:04.882Z,74.10
2018-12-04T21:07:33.226Z,74.20
2018-12-04T21:10:03.020Z,74.20
2018-12-04T21:12:31.560Z,73.70
2018-12-04T21:14:59.967Z,73.00
2018-12-04T21:17:29.174Z,74.20
2018-12-04T21:19:57.569Z,73.60
2018-12-04T21:22:26.780Z,73.30
2018-12-04T21:24:56.457Z,73.00
2018-12-04T21:27:34.458Z,72.70
2018-12-04T21:30:08.660Z,73.30
2018-12-04T21:32:43.098Z,73.00
2018-12-04T21:35:16.822Z,72.70
2018-12-04T21:37:50.564Z,72.20
2018-12-04T21:40:27.213Z,71.80
2018-12-04T21:43:01.076Z,72.10
2018-12-04T21:45:35.762Z,72.60
2018-12-04T21:48:07.175Z,72.30
2018-12-04T21:50:35.567Z,72.20
2018-12-04T21:56:04.753Z,73.30
2018-12-04T21:58:35.775Z,73.60
2018-12-04T22:01:05.419Z,73.70
2018-12-04T22:03:33.829Z,74.10
2018-12-04T22:06:02.162Z,74.00
2018-12-04T22:08:31.024Z,73.90
2018-12-04T22:10:59.381Z,74.00
2018-12-04T22:13:29.194Z,73.90
2018-12-04T22:15:58.955Z,74.00
2018-12-04T22:18:27.381Z,74.20
2018-12-04T22:20:55.776Z,73.60
2018-12-04T22:23:25.526Z,73.20
2018-12-04T22:25:54.511Z,74.00
2018-12-04T22:28:22.878Z,73.70
2018-12-04T22:30:51.385Z,73.30
2018-12-04T22:33:19.882Z,73.70
2018-12-04T22:35:48.563Z,74.10
2018-12-04T22:38:18.300Z,73.30
2018-12-04T22:40:46.771Z,73.40
2018-12-04T22:43:15.373Z,73.50
2018-12-04T22:45:44.496Z,73.60
2018-12-04T22:48:13.290Z,73.30
2018-12-04T22:50:41.687Z,73.40
2018-12-04T22:53:10.331Z,73.30
2018-12-04T22:55:40.112Z,73.80
2018-12-04T22:58:08.604Z,72.80
2018-12-04T23:00:42.201Z,73.10
2018-12-04T23:03:12.073Z,73.40
2018-12-04T23:05:41.095Z,73.30
2018-12-04T23:08:09.940Z,73.00
2018-12-04T23:10:38.355Z,73.20
2018-12-04T23:13:06.821Z,73.10
2018-12-04T23:15:36.438Z,73.10
2018-12-04T23:18:05.082Z,73.30
2018-12-04T23:20:33.492Z,74.00
2018-12-04T23:23:02.026Z,74.10
2018-12-04T23:25:30.598Z,74.00
2018-12-04T23:27:59.013Z,73.50
2018-12-04T23:30:27.529Z,73.10
2018-12-04T23:32:55.931Z,74.00
2018-12-04T23:35:24.816Z,74.40
2018-12-04T23:37:53.310Z,75.10
2018-12-04T23:40:22.121Z,75.20
2018-12-04T23:42:50.456Z,75.20
2018-12-04T23:45:18.818Z,74.60
2018-12-04T23:47:47.172Z,75.10
2018-12-04T23:50:15.518Z,75.10
2018-12-04T23:52:44.011Z,74.90
2018-12-04T23:55:12.389Z,75.00
2018-12-04T23:57:40.663Z,73.60
